Terminal Aerodrome Forecast
Issued by NWS Tampa Bay Area, FL

Home | Current Version | Previous Version | Text Only | Print | Product List | Glossary On
Versions: 1 2 3 4 5 6 7 8 9 10 11 12
694
FTUS42 KTBW 292322
TAFSRQ
TAF
KSRQ 292322Z 3000/3024 30008KT P6SM SKC
     FM300200 VRB03KT P6SM SKC
     FM301400 16012KT P6SM SCT050
     FM301700 20012KT P6SM SCT050
     FM302000 26010KT P6SM SKC=

USA.gov is the U.S. government's official web portal to all federal, state and local government web resources and services.